Time;durP1;ratioP1;P1;durP2;ratioP2;P2;SDS_P1;SDS_P2;PMS_P1;PMS_P2;Temp;Humidity;BMP_temperature;BMP_pressure;BME280_temperature;BME280_humidity;BME280_pressure;Samples;Min_cycle;Max_cycle;Signal;HPM_P1;HPM_P2
2022/02/01 00:04:00;;;;;;;6.87;1.37;;;6.30;99.90;;;;;;4954375;29;20211;-84
2022/02/01 00:14:10;;;;;;;11.63;2.20;;;6.30;99.90;;;;;;4955520;29;20569;-85
2022/02/01 00:37:59;;;;;;;7.20;2.40;;;6.40;99.90;;;;;;4955439;29;20175;-86
2022/02/01 00:40:25;;;;;;;11.13;2.10;;;6.40;99.90;;;;;;4938299;29;20171;-86
2022/02/01 00:42:51;;;;;;;11.63;2.00;;;6.40;99.90;;;;;;4938348;29;20624;-86
2022/02/01 00:45:16;;;;;;;10.40;2.27;;;6.50;99.90;;;;;;4937984;29;20235;-85
2022/02/01 00:47:43;;;;;;;8.33;2.57;;;6.50;99.90;;;;;;4938261;29;20637;-86
2022/02/01 00:50:13;;;;;;;9.17;1.77;;;6.50;99.90;;;;;;4937919;29;20183;-85
2022/02/01 00:52:38;;;;;;;7.03;1.80;;;6.50;99.90;;;;;;4938316;29;20653;-86
2022/02/01 00:55:05;;;;;;;10.83;2.70;;;6.40;99.90;;;;;;4937916;29;20175;-86
2022/02/01 00:57:30;;;;;;;14.77;2.57;;;6.40;99.90;;;;;;4937649;29;20275;-86
2022/02/01 00:59:56;;;;;;;15.10;3.67;;;6.30;99.90;;;;;;4937524;29;20707;-86
2022/02/01 01:02:22;;;;;;;10.20;3.57;;;6.20;99.90;;;;;;4938100;29;20238;-83
2022/02/01 01:04:48;;;;;;;18.33;2.57;;;6.20;99.90;;;;;;4937393;29;20286;-86
2022/02/01 01:07:13;;;;;;;13.80;2.40;;;6.20;99.90;;;;;;4938028;29;20177;-86
2022/02/01 01:09:39;;;;;;;15.50;2.63;;;6.20;99.90;;;;;;4938097;29;20254;-86
2022/02/01 01:12:07;;;;;;;15.57;3.93;;;6.20;99.90;;;;;;4938102;29;20174;-85
2022/02/01 01:44:36;;;;;;;13.70;3.40;;;5.90;99.90;;;;;;4954837;28;20271;-86
2022/02/01 01:53:09;;;;;;;9.20;2.53;;;5.90;99.90;;;;;;4958609;29;20185;-85
2022/02/01 01:55:29;;;;;;;12.50;2.47;;;5.80;99.90;;;;;;4957579;29;20175;-85
2022/02/01 01:57:54;;;;;;;15.33;2.70;;;5.70;99.90;;;;;;4940904;29;20258;-86
2022/02/01 02:00:41;;;;;;;9.83;2.10;;;5.70;99.90;;;;;;4940994;29;20167;-86
2022/02/01 02:03:06;;;;;;;12.13;2.53;;;5.70;99.90;;;;;;4957447;29;20274;-85
2022/02/01 02:05:31;;;;;;;15.70;2.83;;;5.70;99.90;;;;;;4941000;29;20293;-86
2022/02/01 02:07:57;;;;;;;12.63;2.70;;;5.80;99.90;;;;;;4940924;29;20174;-86
2022/02/01 02:10:29;;;;;;;10.70;2.23;;;5.80;99.90;;;;;;4940834;29;20172;-85
2022/02/01 02:14:16;;;;;;;9.97;2.40;;;5.70;99.90;;;;;;4940760;29;20163;-85
2022/02/01 02:15:55;;;;;;;12.93;2.40;;;5.60;99.90;;;;;;4957616;29;20174;-85
2022/02/01 02:18:21;;;;;;;10.13;2.30;;;5.60;99.90;;;;;;4940574;29;20539;-85
2022/02/01 02:20:51;;;;;;;17.27;2.57;;;5.70;99.90;;;;;;4940526;29;20187;-85
2022/02/01 02:23:17;;;;;;;11.17;2.07;;;5.70;99.90;;;;;;4940267;29;20662;-84
2022/02/01 02:25:43;;;;;;;10.00;2.57;;;5.70;99.90;;;;;;4940700;29;20221;-86
2022/02/01 02:28:13;;;;;;;12.07;2.57;;;5.50;99.90;;;;;;4940080;29;20245;-86
2022/02/01 02:30:39;;;;;;;10.40;2.37;;;5.50;99.90;;;;;;4940451;29;20182;-86
2022/02/01 02:33:08;;;;;;;12.83;2.20;;;5.60;99.90;;;;;;4940406;29;20159;-85
2022/02/01 02:35:38;;;;;;;13.90;2.17;;;5.60;99.90;;;;;;4940507;29;20175;-84
2022/02/01 02:38:10;;;;;;;12.90;2.80;;;5.60;99.90;;;;;;4940270;29;20171;-86
2022/02/01 02:41:02;;;;;;;13.03;2.50;;;5.50;99.90;;;;;;4940254;29;20178;-85
2022/02/01 02:46:12;;;;;;;11.87;2.50;;;5.50;99.90;;;;;;4957250;29;20674;-86
2022/02/01 02:48:39;;;;;;;16.00;2.63;;;5.50;99.90;;;;;;4940184;29;20179;-86
2022/02/01 02:51:04;;;;;;;9.43;2.40;;;5.40;99.90;;;;;;4940316;29;20195;-86
2022/02/01 02:53:30;;;;;;;10.60;2.47;;;5.40;99.90;;;;;;4940020;29;20267;-86
2022/02/01 02:55:56;;;;;;;11.90;3.70;;;5.50;99.90;;;;;;4940148;28;20202;-86
2022/02/01 02:58:21;;;;;;;22.00;3.17;;;5.60;99.90;;;;;;4939028;29;20182;-86
2022/02/01 03:00:47;;;;;;;8.37;2.10;;;5.60;99.90;;;;;;4939833;29;20186;-85
2022/02/01 03:03:13;;;;;;;10.43;2.50;;;5.70;99.90;;;;;;4939924;29;20266;-86
2022/02/01 03:05:38;;;;;;;10.60;2.00;;;5.70;99.90;;;;;;4940147;29;20305;-86
2022/02/01 03:08:04;;;;;;;14.27;2.47;;;5.70;99.90;;;;;;4939920;29;20191;-86
2022/02/01 03:10:30;;;;;;;11.33;2.90;;;5.80;99.90;;;;;;4939957;29;20183;-86
2022/02/01 03:13:15;;;;;;;8.43;2.17;;;5.80;99.90;;;;;;4939776;29;20174;-85
2022/02/01 03:20:51;;;;;;;9.87;2.63;;;5.70;99.90;;;;;;4957065;29;20194;-87
2022/02/01 03:23:16;;;;;;;16.73;2.43;;;5.70;99.90;;;;;;4939514;29;20543;-86
2022/02/01 03:25:42;;;;;;;11.37;3.47;;;5.70;99.90;;;;;;4939448;29;20682;-85
2022/02/01 03:28:07;;;;;;;13.10;2.47;;;5.60;99.90;;;;;;4939585;29;20191;-85
2022/02/01 03:30:33;;;;;;;15.00;3.10;;;5.60;99.90;;;;;;4939342;29;20593;-86
2022/02/01 03:32:59;;;;;;;13.30;2.10;;;5.70;99.90;;;;;;4939208;29;20612;-86
2022/02/01 03:35:25;;;;;;;12.87;2.27;;;5.80;99.90;;;;;;4939437;29;20171;-86
2022/02/01 03:37:51;;;;;;;18.40;2.90;;;5.80;99.90;;;;;;4939439;29;20250;-87
2022/02/01 03:40:19;;;;;;;11.87;2.50;;;5.80;99.90;;;;;;4939149;29;20233;-86
2022/02/01 03:42:45;;;;;;;14.43;3.37;;;5.80;99.90;;;;;;4938963;29;20217;-85
2022/02/01 03:45:11;;;;;;;16.70;3.60;;;5.80;99.90;;;;;;4939053;29;20335;-86
2022/02/01 03:47:37;;;;;;;14.80;3.40;;;5.70;99.90;;;;;;4939446;29;20523;-86
2022/02/01 03:50:07;;;;;;;13.50;3.37;;;5.80;99.90;;;;;;4938869;29;20175;-86
2022/02/01 03:52:33;;;;;;;11.57;3.10;;;5.80;99.90;;;;;;4939281;29;20183;-86
2022/02/01 03:54:58;;;;;;;16.97;3.07;;;5.70;99.90;;;;;;4938826;29;20617;-86
2022/02/01 03:57:24;;;;;;;13.70;3.17;;;5.70;99.90;;;;;;4938738;29;20218;-85
2022/02/01 03:59:50;;;;;;;15.60;3.50;;;5.80;99.90;;;;;;4938927;29;20171;-86
2022/02/01 04:02:16;;;;;;;17.37;3.90;;;5.70;99.90;;;;;;4939066;29;20176;-85
2022/02/01 04:04:42;;;;;;;15.87;3.87;;;5.70;99.90;;;;;;4938726;29;20295;-86
2022/02/01 04:07:08;;;;;;;22.70;3.83;;;5.70;99.90;;;;;;4938972;29;20203;-86
2022/02/01 04:09:35;;;;;;;18.67;4.50;;;5.80;99.90;;;;;;4938437;29;20211;-86
2022/02/01 04:12:04;;;;;;;17.07;3.80;;;5.70;99.90;;;;;;4938462;29;20167;-86
2022/02/01 04:14:33;;;;;;;17.50;4.43;;;5.60;99.90;;;;;;4938499;29;20276;-86
2022/02/01 04:17:04;;;;;;;13.43;3.90;;;5.60;99.90;;;;;;4938702;29;20177;-86
2022/02/01 04:19:31;;;;;;;19.53;4.97;;;5.60;99.90;;;;;;4938201;29;20195;-86
2022/02/01 04:22:03;;;;;;;18.73;4.47;;;5.60;99.90;;;;;;4938454;29;20187;-87
2022/02/01 04:24:34;;;;;;;13.20;4.73;;;5.60;99.90;;;;;;4938271;29;20211;-87
2022/02/01 04:27:00;;;;;;;18.00;4.03;;;5.60;99.90;;;;;;4938374;29;20199;-86
2022/02/01 04:29:26;;;;;;;17.17;5.53;;;5.70;99.90;;;;;;4938259;29;20262;-86
2022/02/01 04:31:52;;;;;;;15.23;5.17;;;5.60;99.90;;;;;;4922697;29;20211;-87
2022/02/01 04:34:18;;;;;;;14.50;4.70;;;5.60;99.90;;;;;;4938240;29;20602;-86
2022/02/01 04:36:44;;;;;;;17.27;5.80;;;5.70;99.90;;;;;;4938100;29;20211;-84
2022/02/01 04:39:10;;;;;;;12.27;4.73;;;5.70;99.90;;;;;;4938345;29;20186;-85
2022/02/01 04:41:36;;;;;;;13.53;4.80;;;5.80;99.90;;;;;;4938086;29;20163;-84
2022/02/01 04:44:02;;;;;;;21.37;5.40;;;5.80;99.90;;;;;;4938289;29;20180;-84
2022/02/01 04:46:29;;;;;;;17.93;5.43;;;5.80;99.90;;;;;;4937725;29;20179;-84
2022/02/01 04:49:01;;;;;;;15.67;5.60;;;5.90;99.90;;;;;;4937892;29;20223;-85
2022/02/01 04:51:28;;;;;;;13.13;4.90;;;6.00;99.90;;;;;;4938120;29;20206;-86
2022/02/01 04:53:55;;;;;;;20.03;5.57;;;5.80;99.90;;;;;;4937769;29;20167;-86
2022/02/01 04:56:20;;;;;;;15.30;5.67;;;5.70;99.90;;;;;;4937854;29;20159;-86
2022/02/01 04:58:46;;;;;;;22.90;5.80;;;5.70;99.90;;;;;;4938060;29;20655;-85
2022/02/01 05:01:13;;;;;;;14.60;4.60;;;5.80;99.90;;;;;;4937862;29;20175;-86
2022/02/01 05:03:39;;;;;;;19.13;6.10;;;5.90;99.90;;;;;;4954994;29;20151;-86
2022/02/01 05:06:06;;;;;;;16.87;6.87;;;5.90;99.90;;;;;;4937883;29;20203;-86
2022/02/01 05:08:32;;;;;;;23.43;5.87;;;5.90;99.90;;;;;;4937817;29;20171;-86
2022/02/01 05:10:58;;;;;;;21.03;5.97;;;5.80;99.90;;;;;;4937647;29;20175;-86
2022/02/01 05:14:02;;;;;;;17.30;5.57;;;5.90;99.90;;;;;;4937849;29;20223;-85
2022/02/01 05:16:16;;;;;;;19.73;6.00;;;5.90;99.90;;;;;;4954354;29;20179;-85
2022/02/01 05:18:50;;;;;;;22.40;6.00;;;5.90;99.90;;;;;;4937957;29;20179;-85
2022/02/01 05:21:25;;;;;;;18.17;5.17;;;5.80;99.90;;;;;;4940575;29;20194;-85
2022/02/01 05:23:52;;;;;;;18.87;5.67;;;5.80;99.90;;;;;;4941800;29;20218;-86
2022/02/01 05:26:19;;;;;;;18.60;6.30;;;5.80;99.90;;;;;;4941223;28;20197;-85
2022/02/01 05:28:46;;;;;;;23.47;5.87;;;5.70;99.90;;;;;;4941700;29;20206;-85
2022/02/01 05:31:11;;;;;;;18.20;6.20;;;5.60;99.90;;;;;;4941840;29;20634;-86
2022/02/01 05:33:38;;;;;;;28.30;6.30;;;5.60;99.90;;;;;;4941643;29;20256;-86
2022/02/01 05:36:05;;;;;;;21.73;6.07;;;5.60;99.90;;;;;;4941487;29;20179;-86
2022/02/01 05:38:31;;;;;;;20.07;6.23;;;5.70;99.90;;;;;;4941573;29;20175;-86
2022/02/01 05:40:57;;;;;;;17.83;5.73;;;5.50;99.90;;;;;;4941445;29;20171;-85
2022/02/01 05:43:26;;;;;;;19.50;6.30;;;5.50;99.90;;;;;;4941363;29;20171;-85
2022/02/01 05:45:54;;;;;;;26.50;6.53;;;5.60;99.90;;;;;;4941560;29;20293;-85
2022/02/01 05:48:20;;;;;;;20.77;6.57;;;5.60;99.90;;;;;;4941416;29;20175;-86
2022/02/01 05:50:50;;;;;;;24.97;6.97;;;5.70;99.90;;;;;;4940961;29;20179;-85
2022/02/01 05:53:17;;;;;;;23.63;6.93;;;5.70;99.90;;;;;;4940598;29;20183;-85
2022/02/01 05:55:43;;;;;;;20.43;7.80;;;5.70;99.90;;;;;;4936680;29;20183;-86
2022/02/01 05:58:09;;;;;;;24.00;7.60;;;5.70;99.90;;;;;;4941250;29;20189;-86
2022/02/01 06:00:34;;;;;;;24.60;7.60;;;5.60;99.90;;;;;;4940928;29;20167;-87
2022/02/01 06:03:00;;;;;;;22.90;8.00;;;5.50;99.90;;;;;;4941189;29;20179;-86
2022/02/01 06:05:27;;;;;;;21.43;7.90;;;5.40;99.90;;;;;;4940774;29;20202;-86
2022/02/01 06:07:54;;;;;;;16.23;7.10;;;5.50;99.90;;;;;;4941096;29;20179;-86
2022/02/01 06:10:20;;;;;;;23.77;7.67;;;5.40;99.90;;;;;;4941385;29;20179;-86
2022/02/01 06:12:49;;;;;;;20.07;8.43;;;5.30;99.90;;;;;;4941480;29;20168;-86
2022/02/01 06:15:16;;;;;;;31.13;9.13;;;5.30;99.90;;;;;;4958456;29;20166;-86
2022/02/01 06:17:45;;;;;;;23.00;8.97;;;5.30;99.90;;;;;;4941483;29;20175;-86
2022/02/01 06:20:13;;;;;;;30.50;8.73;;;5.30;99.90;;;;;;4941195;29;20187;-84
2022/02/01 06:22:40;;;;;;;25.27;9.77;;;5.30;99.90;;;;;;4940875;29;20230;-87
2022/02/01 06:25:07;;;;;;;21.77;9.30;;;5.30;99.90;;;;;;4941041;29;20206;-87
2022/02/01 06:27:33;;;;;;;33.80;10.67;;;5.30;99.90;;;;;;4940983;29;20226;-85
2022/02/01 06:29:59;;;;;;;17.53;9.60;;;5.20;99.90;;;;;;4941332;29;20208;-87
2022/02/01 06:32:31;;;;;;;19.80;9.73;;;5.20;99.90;;;;;;4940809;29;20183;-85
2022/02/01 06:35:00;;;;;;;24.97;10.37;;;5.20;99.90;;;;;;4938244;29;21547;-86
2022/02/01 06:37:27;;;;;;;25.83;10.23;;;5.10;99.90;;;;;;4940373;28;20169;-84
2022/02/01 06:39:53;;;;;;;24.23;11.10;;;5.20;99.90;;;;;;4940247;29;20178;-84
2022/02/01 06:42:20;;;;;;;25.87;11.33;;;5.20;99.90;;;;;;4940668;29;20171;-85
2022/02/01 06:44:47;;;;;;;19.87;10.87;;;5.20;99.90;;;;;;4940646;29;20207;-84
2022/02/01 06:47:12;;;;;;;29.17;11.30;;;5.30;99.90;;;;;;4935375;29;20164;-84
2022/02/01 06:49:38;;;;;;;26.20;11.33;;;5.40;99.90;;;;;;4936240;29;20189;-84
2022/02/01 06:52:04;;;;;;;24.00;11.57;;;5.50;99.90;;;;;;4933782;29;20695;-84
2022/02/01 06:54:33;;;;;;;26.23;12.10;;;5.50;99.90;;;;;;4939693;29;20171;-85
2022/02/01 06:56:59;;;;;;;21.93;11.70;;;5.50;99.90;;;;;;4940201;29;20194;-84
2022/02/01 06:59:26;;;;;;;23.70;10.97;;;5.50;99.90;;;;;;4940419;29;20222;-85
2022/02/01 07:01:55;;;;;;;24.50;11.63;;;5.40;99.90;;;;;;4957579;29;20192;-84
2022/02/01 07:04:23;;;;;;;23.90;12.50;;;5.40;99.90;;;;;;4940234;29;20670;-85
2022/02/01 07:06:49;;;;;;;20.47;11.83;;;5.50;99.90;;;;;;4939779;29;20211;-85
2022/02/01 07:09:16;;;;;;;23.20;11.57;;;5.60;99.90;;;;;;4938219;29;20186;-85
2022/02/01 07:11:41;;;;;;;19.53;11.00;;;5.50;99.90;;;;;;4930845;29;20633;-86
2022/02/01 07:14:07;;;;;;;22.60;11.80;;;5.50;99.90;;;;;;4920622;29;20187;-87
2022/02/01 07:16:33;;;;;;;23.20;11.57;;;5.50;99.90;;;;;;4930457;29;20278;-86
2022/02/01 07:18:59;;;;;;;21.07;11.73;;;5.50;99.90;;;;;;4927414;29;20258;-86
2022/02/01 07:21:26;;;;;;;20.00;12.27;;;5.60;99.90;;;;;;4938580;29;20202;-86
2022/02/01 07:23:52;;;;;;;22.80;12.40;;;5.60;99.90;;;;;;4938781;29;20207;-86
2022/02/01 07:26:21;;;;;;;18.57;11.23;;;5.70;99.90;;;;;;4938824;29;20267;-86
2022/02/01 07:28:47;;;;;;;20.47;11.80;;;5.70;99.90;;;;;;4938762;29;20550;-87
2022/02/01 08:21:04;;;;;;;22.87;11.60;;;6.00;99.90;;;;;;4912074;29;20196;-88
2022/02/01 08:23:30;;;;;;;22.53;11.83;;;6.10;99.90;;;;;;4899076;29;20173;-89
2022/02/01 08:25:57;;;;;;;19.33;11.40;;;6.10;99.90;;;;;;4896425;29;20248;-89
2022/02/01 08:28:23;;;;;;;27.80;11.40;;;6.10;99.90;;;;;;4882060;29;20206;-89
2022/02/01 08:30:50;;;;;;;20.60;11.83;;;6.10;99.90;;;;;;4881237;29;20173;-89
2022/02/01 08:33:16;;;;;;;22.67;11.13;;;6.10;99.90;;;;;;4881908;29;20174;-89
2022/02/01 08:35:42;;;;;;;27.07;11.70;;;6.10;99.90;;;;;;4881234;29;20181;-87
2022/02/01 08:38:07;;;;;;;19.97;11.03;;;6.20;99.90;;;;;;4881903;29;20180;-89
2022/02/01 08:40:33;;;;;;;24.63;12.37;;;6.10;99.90;;;;;;4881806;29;20646;-88
2022/02/01 08:42:59;;;;;;;23.07;12.80;;;6.20;99.90;;;;;;4881538;29;20256;-89
2022/02/01 08:45:25;;;;;;;22.37;12.23;;;6.10;99.90;;;;;;4897157;29;20213;-89
2022/02/01 08:47:55;;;;;;;19.50;11.90;;;6.10;99.90;;;;;;4880534;29;20173;-89
2022/02/01 08:50:26;;;;;;;19.73;11.57;;;6.10;99.90;;;;;;4892985;29;20642;-89
2022/02/01 08:52:53;;;;;;;23.50;12.17;;;6.20;99.90;;;;;;4899967;29;20219;-89
2022/02/01 08:55:34;;;;;;;18.50;11.60;;;6.20;99.90;;;;;;4899169;29;20176;-88
2022/02/01 08:58:01;;;;;;;23.30;12.33;;;6.20;99.90;;;;;;4899984;29;20232;-90
2022/02/01 09:00:28;;;;;;;22.40;12.13;;;6.20;99.90;;;;;;4900058;29;20180;-89
2022/02/01 09:02:56;;;;;;;22.63;12.87;;;6.20;99.90;;;;;;4899680;29;20164;-89
2022/02/01 09:05:22;;;;;;;24.73;13.27;;;6.30;99.90;;;;;;4899870;29;20236;-90
2022/02/01 09:07:48;;;;;;;24.60;13.27;;;6.40;99.90;;;;;;4916592;29;20252;-90
2022/02/01 09:10:14;;;;;;;25.47;12.97;;;6.40;99.90;;;;;;4899923;29;20214;-89
2022/02/01 09:12:39;;;;;;;25.67;12.97;;;6.50;99.90;;;;;;4916664;29;20540;-91
2022/02/01 09:15:05;;;;;;;24.17;13.27;;;6.50;99.90;;;;;;4900102;29;20173;-88
2022/02/01 09:17:31;;;;;;;20.67;12.90;;;6.60;99.90;;;;;;4899278;29;20200;-89
2022/02/01 09:19:58;;;;;;;31.70;14.10;;;6.60;99.90;;;;;;4897055;29;20170;-90
2022/02/01 09:22:24;;;;;;;24.63;13.40;;;6.50;99.90;;;;;;4881667;29;20193;-90
2022/02/01 09:24:50;;;;;;;24.27;11.93;;;6.60;99.90;;;;;;4881671;29;20729;-88
2022/02/01 09:27:15;;;;;;;21.53;13.43;;;6.60;99.90;;;;;;4881647;29;20276;-91
2022/02/01 09:29:41;;;;;;;22.33;14.40;;;6.60;99.90;;;;;;4881494;29;20177;-92
2022/02/01 09:32:07;;;;;;;23.43;14.03;;;6.60;99.90;;;;;;4881335;29;20213;-91
2022/02/01 09:34:34;;;;;;;23.40;12.90;;;6.70;99.90;;;;;;4881437;29;20217;-90
2022/02/01 09:37:03;;;;;;;24.87;12.87;;;6.60;99.90;;;;;;4881592;29;20542;-91
2022/02/01 09:39:30;;;;;;;24.47;13.20;;;6.60;99.90;;;;;;4881488;29;20252;-91
2022/02/01 09:41:56;;;;;;;23.03;14.03;;;6.70;99.90;;;;;;4881702;29;20173;-90
2022/02/01 09:44:22;;;;;;;22.97;12.93;;;6.80;99.90;;;;;;4877291;29;20202;-91
2022/02/01 09:46:51;;;;;;;19.53;12.77;;;6.90;99.90;;;;;;4885207;29;20212;-88
2022/02/01 09:49:19;;;;;;;22.40;13.93;;;6.90;99.90;;;;;;4899759;29;20557;-90
2022/02/01 09:51:46;;;;;;;23.83;13.00;;;6.90;99.90;;;;;;4899933;29;20271;-91
2022/02/01 09:54:12;;;;;;;26.73;14.70;;;7.00;99.90;;;;;;4892344;29;20170;-91
2022/02/01 09:56:38;;;;;;;23.67;12.87;;;7.10;99.90;;;;;;4895575;29;20523;-89
2022/02/01 09:59:17;;;;;;;25.10;13.20;;;7.10;99.90;;;;;;4894254;29;20621;-91
2022/02/01 10:01:46;;;;;;;23.07;13.60;;;7.10;99.90;;;;;;4880882;29;20178;-91
2022/02/01 10:04:13;;;;;;;21.67;12.60;;;7.10;99.90;;;;;;4881304;29;20185;-91
2022/02/01 10:06:40;;;;;;;22.20;13.00;;;7.10;99.90;;;;;;4882524;29;20181;-90
2022/02/01 10:09:09;;;;;;;26.10;12.83;;;7.00;99.90;;;;;;4884637;29;20204;-89
2022/02/01 10:11:43;;;;;;;24.17;14.13;;;7.00;99.90;;;;;;4884498;29;20169;-91
2022/02/01 10:14:20;;;;;;;24.87;13.63;;;7.10;99.90;;;;;;4884538;29;20177;-89
2022/02/01 10:16:51;;;;;;;23.03;14.20;;;7.20;99.90;;;;;;4884702;29;20203;-90
2022/02/01 10:19:19;;;;;;;23.27;13.47;;;7.10;99.90;;;;;;4884270;29;20200;-91
2022/02/01 10:21:55;;;;;;;26.27;13.80;;;7.10;99.90;;;;;;4884475;29;20181;-92
2022/02/01 10:24:38;;;;;;;27.10;13.90;;;7.10;99.90;;;;;;4884681;29;20235;-89
2022/02/01 10:27:13;;;;;;;27.17;13.93;;;7.10;99.90;;;;;;4884386;29;20232;-92
2022/02/01 10:32:38;;;;;;;23.47;13.63;;;7.30;99.90;;;;;;4897167;29;20188;-92
2022/02/01 10:38:18;;;;;;;18.40;11.87;;;7.40;99.90;;;;;;4901484;29;20647;-92
2022/02/01 10:40:46;;;;;;;25.33;12.13;;;7.30;99.90;;;;;;4884747;29;20184;-92
2022/02/01 10:43:29;;;;;;;18.77;11.80;;;7.40;99.90;;;;;;4884286;29;20314;-90
2022/02/01 10:46:23;;;;;;;18.57;12.30;;;7.40;99.90;;;;;;4885175;29;20220;-93
2022/02/01 10:48:50;;;;;;;17.47;11.30;;;7.40;99.90;;;;;;4905492;29;20581;-86
2022/02/01 10:51:24;;;;;;;18.83;11.13;;;7.40;99.90;;;;;;4893164;29;20581;-89
2022/02/01 10:53:55;;;;;;;18.33;11.40;;;7.40;99.90;;;;;;4892711;29;20185;-89
2022/02/01 10:56:23;;;;;;;17.80;11.93;;;7.40;99.90;;;;;;4892399;29;20232;-92
2022/02/01 10:58:50;;;;;;;20.37;11.37;;;7.50;99.90;;;;;;4883497;29;20169;-91
2022/02/01 11:01:18;;;;;;;18.90;11.73;;;7.60;99.90;;;;;;4900423;29;20178;-92
2022/02/01 11:03:46;;;;;;;20.43;12.70;;;7.60;99.90;;;;;;4900733;29;20264;-92
2022/02/01 11:06:12;;;;;;;23.03;14.43;;;7.60;99.90;;;;;;4883566;29;20213;-91
2022/02/01 11:08:40;;;;;;;25.37;15.73;;;7.60;99.90;;;;;;4899460;29;20205;-91
2022/02/01 11:11:07;;;;;;;18.20;12.30;;;7.60;99.90;;;;;;4883338;29;20626;-92
2022/02/01 11:13:36;;;;;;;69.57;45.73;;;7.50;99.90;;;;;;4883361;29;20169;-91
2022/02/01 11:16:05;;;;;;;29.53;18.07;;;7.60;99.90;;;;;;4899936;29;20634;-92
2022/02/01 11:18:31;;;;;;;48.33;32.93;;;7.50;99.90;;;;;;4881391;29;20587;-89
2022/02/01 11:21:03;;;;;;;22.57;16.00;;;7.50;99.90;;;;;;4882968;29;20226;-91
2022/02/01 11:23:43;;;;;;;18.63;12.83;;;7.60;99.90;;;;;;4882974;29;20269;-89
2022/02/01 11:26:49;;;;;;;21.57;13.43;;;7.70;99.90;;;;;;4882875;29;20246;-90
2022/02/01 11:31:57;;;;;;;25.83;15.57;;;7.80;99.90;;;;;;4899802;29;20190;-89
2022/02/01 11:34:29;;;;;;;25.63;15.00;;;7.80;99.90;;;;;;4882779;29;20190;-91
2022/02/01 11:37:08;;;;;;;23.73;15.33;;;7.90;99.90;;;;;;4883195;29;20177;-90
2022/02/01 11:39:34;;;;;;;31.30;15.77;;;7.90;99.90;;;;;;4882522;29;20181;-92
2022/02/01 11:42:10;;;;;;;22.07;14.53;;;7.90;99.90;;;;;;4882589;29;20178;-89
2022/02/01 11:44:36;;;;;;;22.50;14.37;;;7.90;99.90;;;;;;4899103;29;20714;-91
2022/02/01 11:47:18;;;;;;;27.30;14.13;;;8.00;99.90;;;;;;4882289;29;20193;-91
2022/02/01 11:49:59;;;;;;;20.60;13.13;;;8.10;99.90;;;;;;4899559;29;20529;-91
2022/02/01 11:52:27;;;;;;;24.13;14.47;;;8.10;99.90;;;;;;4899552;29;20213;-91
2022/02/01 11:55:06;;;;;;;26.47;15.30;;;8.10;99.90;;;;;;4898793;29;20231;-91
2022/02/01 11:57:32;;;;;;;35.90;23.20;;;8.20;99.90;;;;;;4881254;29;20187;-91
2022/02/01 12:00:07;;;;;;;30.77;17.13;;;8.30;99.90;;;;;;4898360;29;20226;-91
2022/02/01 12:02:39;;;;;;;31.77;19.83;;;8.20;99.90;;;;;;4882160;29;20281;-90
2022/02/01 12:05:16;;;;;;;27.83;15.47;;;8.30;99.90;;;;;;4881871;29;20203;-91
2022/02/01 12:08:06;;;;;;;28.63;17.03;;;8.20;99.90;;;;;;4882730;29;20174;-91
2022/02/01 12:10:47;;;;;;;27.73;13.47;;;8.30;99.90;;;;;;4885464;29;20174;-90
2022/02/01 12:13:18;;;;;;;24.43;12.90;;;8.30;99.90;;;;;;4882364;29;20663;-90
2022/02/01 12:15:46;;;;;;;23.67;12.67;;;8.40;99.90;;;;;;4882143;29;20174;-91
2022/02/01 12:18:29;;;;;;;24.73;13.03;;;8.50;99.90;;;;;;4898763;29;20196;-91
2022/02/01 12:21:05;;;;;;;30.97;16.73;;;8.60;99.90;;;;;;4898912;29;20686;-90
2022/02/01 12:23:31;;;;;;;21.63;12.00;;;8.70;99.90;;;;;;4882268;29;20184;-90
2022/02/01 12:25:58;;;;;;;26.37;12.73;;;8.60;99.90;;;;;;4881983;29;20297;-92
2022/02/01 12:28:27;;;;;;;23.23;11.40;;;8.60;99.90;;;;;;4899141;29;20166;-91
2022/02/01 12:31:06;;;;;;;26.27;11.47;;;8.70;99.90;;;;;;4882005;29;20174;-90
2022/02/01 12:33:32;;;;;;;31.37;13.90;;;8.70;99.90;;;;;;4882233;29;20201;-91
2022/02/01 12:35:57;;;;;;;41.70;22.47;;;8.70;99.90;;;;;;4882117;29;20195;-89
2022/02/01 12:38:28;;;;;;;28.37;12.17;;;8.70;99.90;;;;;;4898586;29;20647;-90
2022/02/01 12:41:01;;;;;;;28.70;11.90;;;8.90;99.90;;;;;;4881832;29;20202;-90
2022/02/01 12:43:31;;;;;;;23.93;11.23;;;8.90;99.90;;;;;;4882062;29;20274;-90
2022/02/01 12:46:47;;;;;;;21.43;9.40;;;8.80;99.90;;;;;;4898475;29;20215;-91
2022/02/01 12:48:48;;;;;;;26.77;15.57;;;8.90;99.90;;;;;;4894714;29;20648;-89
2022/02/01 12:51:14;;;;;;;28.50;12.17;;;9.00;99.90;;;;;;4881677;29;20467;-90
2022/02/01 12:53:48;;;;;;;24.77;9.87;;;9.00;99.90;;;;;;4882587;29;20171;-89
2022/02/01 12:56:19;;;;;;;17.67;10.63;;;9.10;99.90;;;;;;4881747;29;20179;-92
2022/02/01 12:58:54;;;;;;;29.93;11.60;;;9.10;99.90;;;;;;4881929;29;20175;-91
2022/02/01 13:01:38;;;;;;;28.33;10.23;;;9.10;99.90;;;;;;4882025;29;20190;-90
2022/02/01 13:04:05;;;;;;;24.47;10.73;;;9.20;99.90;;;;;;4881628;29;20173;-91
2022/02/01 13:06:40;;;;;;;22.93;10.83;;;9.20;99.90;;;;;;4881680;29;20659;-90
2022/02/01 13:14:48;;;;;;;31.00;10.30;;;9.30;99.90;;;;;;4898572;29;20172;-90
2022/02/01 13:20:12;;;;;;;27.87;11.33;;;9.30;99.90;;;;;;4898732;29;20167;-90
2022/02/01 13:22:50;;;;;;;27.10;11.03;;;9.30;99.90;;;;;;4881588;29;20204;-90
2022/02/01 13:25:16;;;;;;;22.33;11.13;;;9.50;99.90;;;;;;4881752;29;20201;-90
2022/02/01 13:27:42;;;;;;;26.43;10.80;;;9.50;99.90;;;;;;4881666;29;20676;-90
2022/02/01 13:30:10;;;;;;;26.00;10.67;;;9.60;99.90;;;;;;4881454;29;20179;-90
2022/02/01 13:32:39;;;;;;;31.40;10.43;;;9.60;99.90;;;;;;4881283;29;20255;-89
2022/02/01 13:35:11;;;;;;;19.03;8.60;;;9.70;99.90;;;;;;4881592;29;20218;-89
2022/02/01 13:37:47;;;;;;;15.37;8.83;;;9.80;99.90;;;;;;4881541;29;20203;-90
2022/02/01 13:40:28;;;;;;;28.40;9.90;;;9.80;99.90;;;;;;4881441;29;20180;-90
2022/02/01 13:42:56;;;;;;;23.13;8.87;;;9.90;99.90;;;;;;4884639;29;20595;-90
2022/02/01 13:45:33;;;;;;;21.70;9.00;;;10.00;99.90;;;;;;4884902;29;20226;-90
2022/02/01 13:47:59;;;;;;;16.53;8.23;;;10.10;99.90;;;;;;4902038;29;20184;-90
2022/02/01 13:50:24;;;;;;;23.50;8.37;;;10.10;99.90;;;;;;4901801;29;20176;-91
2022/02/01 13:53:00;;;;;;;14.63;7.57;;;10.10;99.90;;;;;;4884581;29;20234;-91
2022/02/01 13:55:30;;;;;;;21.63;8.67;;;10.10;99.90;;;;;;4885051;29;20181;-90
2022/02/01 13:58:11;;;;;;;20.73;7.37;;;10.10;99.90;;;;;;4885313;29;20175;-91
2022/02/01 14:00:48;;;;;;;17.90;6.90;;;10.10;99.90;;;;;;4884787;29;20180;-89
2022/02/01 14:03:30;;;;;;;14.67;6.93;;;10.10;99.90;;;;;;4901187;29;20176;-91
2022/02/01 14:06:21;;;;;;;14.47;6.80;;;10.10;99.90;;;;;;4884585;29;20220;-91
2022/02/01 14:27:18;;;;;;;16.50;6.53;;;10.40;99.90;;;;;;4901025;29;20201;-87
2022/02/01 14:33:22;;;;;;;17.77;11.40;;;10.60;99.90;;;;;;4900946;29;20189;-90
2022/02/01 14:35:00;;;;;;;19.40;11.27;;;10.70;99.90;;;;;;4897035;29;20187;-91
2022/02/01 14:37:37;;;;;;;12.27;5.73;;;10.60;99.90;;;;;;4884038;29;20718;-90
2022/02/01 14:43:20;;;;;;;11.80;5.17;;;10.70;99.90;;;;;;4900918;29;20168;-91
2022/02/01 14:45:40;;;;;;;15.73;8.77;;;10.70;99.90;;;;;;4900158;29;20220;-90
2022/02/01 14:48:06;;;;;;;12.87;5.90;;;10.80;99.90;;;;;;4883901;29;20185;-88
2022/02/01 14:50:32;;;;;;;14.07;4.83;;;10.80;99.90;;;;;;4884345;29;20218;-91
2022/02/01 14:52:57;;;;;;;22.60;15.13;;;10.70;99.90;;;;;;4883942;29;20604;-91
2022/02/01 14:55:24;;;;;;;13.43;7.87;;;10.80;99.90;;;;;;4883691;29;20210;-89
2022/02/01 15:11:44;;;;;;;10.57;4.97;;;10.90;99.90;;;;;;4900604;29;20201;-90
2022/02/01 15:14:09;;;;;;;11.63;5.30;;;10.90;99.90;;;;;;4883528;29;20191;-90
2022/02/01 15:16:35;;;;;;;13.43;5.17;;;11.00;99.90;;;;;;4883743;29;20556;-90
2022/02/01 15:19:01;;;;;;;14.83;5.07;;;11.00;99.90;;;;;;4900792;29;20181;-89
2022/02/01 15:21:27;;;;;;;11.33;5.30;;;11.00;99.90;;;;;;4883365;29;20180;-90
2022/02/01 15:23:52;;;;;;;13.43;5.27;;;11.00;99.90;;;;;;4883351;29;20192;-90
2022/02/01 15:26:18;;;;;;;11.43;4.87;;;11.00;99.90;;;;;;4883455;29;20235;-90
2022/02/01 15:28:44;;;;;;;13.97;5.10;;;10.90;99.90;;;;;;4883360;29;20552;-90
2022/02/01 15:31:09;;;;;;;14.17;5.13;;;10.90;99.90;;;;;;4883103;29;20609;-88
2022/02/01 15:33:35;;;;;;;12.70;4.93;;;10.90;99.90;;;;;;4882816;29;20176;-89
2022/02/01 15:36:03;;;;;;;12.60;5.10;;;11.00;99.90;;;;;;4900154;29;20181;-91
2022/02/01 15:38:36;;;;;;;11.70;4.77;;;11.00;99.90;;;;;;4882966;29;20177;-90
2022/02/01 15:47:35;;;;;;;8.50;4.77;;;11.10;99.90;;;;;;4899605;29;20216;-90
2022/02/01 15:55:02;;;;;;;11.43;5.27;;;11.00;99.90;;;;;;4899590;29;20215;-90
2022/02/01 15:57:31;;;;;;;11.13;5.07;;;11.00;99.90;;;;;;4899218;29;20188;-90
2022/02/01 15:59:57;;;;;;;13.33;4.83;;;11.00;99.90;;;;;;4882741;29;20193;-89
2022/02/01 16:02:25;;;;;;;10.40;4.67;;;11.00;99.90;;;;;;4883299;29;20161;-89